UKON/NLV METAR and TAF weather

Enter ICAO airport designator
Station Type Date Time Source
UKON METAR 2019/10/23 13:00 UTC NOAA

UKON 231300Z 15001MPS 0450 0350SW FG VV001 12/12 Q1023 R04/190070 NOSIG


Station Type Date Time Source
UKON Decoded METAR 2019/10/23 13:00 UTC NOAA

Mykolaiv, Ukraine (UKON) 47-03-29N 031-55-15E
Oct 23, 2019 - 09:00 AM EDT / 2019.10.23 1300 UTC
Wind: from the SSE (150 degrees) at 2 MPH (2 KT):0
Visibility: less than 1 mile:0
Sky conditions: obscured
Weather: fog
Temperature: 53 F (12 C)
Dew Point: 53 F (12 C)
Relative Humidity: 100%
Pressure (altimeter): 30.21 in. Hg (1023 hPa)
ob: UKON 231300Z 15001MPS 0450 0350SW FG VV001 12/12 Q1023 R04/190070 NOSIG
cycle: 13

Station Type Date Time Source
UKON TAF 2018/11/06 15:06 UTC NOAA

TAF
AMD TAF
AMD UKON 061502Z 0615/0724 CNL

Example: see airport list